Time;durP1;ratioP1;P1;durP2;ratioP2;P2;SDS_P1;SDS_P2;PMS_P1;PMS_P2;Temp;Humidity;BMP_temperature;BMP_pressure;BME280_temperature;BME280_humidity;BME280_pressure;Samples;Min_cycle;Max_cycle;Signal;HPM_P1;HPM_P2
2022/11/05 00:09:28;;;;;;;0.88;0.88;;;15.60;59.10;;;;;;4985882;28;45312;-78
2022/11/05 00:17:08;;;;;;;1.02;0.73;;;15.60;59.10;;;;;;5004742;28;45387;-77
2022/11/05 00:19:36;;;;;;;0.93;0.85;;;15.60;59.10;;;;;;5007313;28;45424;-77
2022/11/05 00:27:40;;;;;;;0.85;0.70;;;15.50;59.10;;;;;;4995757;28;45305;-78
2022/11/05 00:30:08;;;;;;;0.80;0.80;;;15.50;59.70;;;;;;5007498;28;45398;-77
2022/11/05 00:32:35;;;;;;;1.00;0.80;;;15.50;59.10;;;;;;5006903;28;46802;-76
2022/11/05 00:35:04;;;;;;;0.80;0.80;;;15.50;59.20;;;;;;5006321;28;45260;-79
2022/11/05 00:37:31;;;;;;;0.73;0.73;;;15.50;59.20;;;;;;5006451;28;45461;-80
2022/11/05 00:39:58;;;;;;;0.70;0.70;;;15.50;59.20;;;;;;5007404;28;45299;-77
2022/11/05 00:45:10;;;;;;;0.70;0.70;;;15.50;59.20;;;;;;5004635;28;45180;-79
2022/11/05 00:50:24;;;;;;;0.68;0.63;;;15.50;59.20;;;;;;5007849;28;45254;-79
2022/11/05 00:52:58;;;;;;;0.68;0.68;;;15.50;59.20;;;;;;5006947;28;45298;-80
2022/11/05 00:55:27;;;;;;;0.95;0.70;;;15.50;59.80;;;;;;5006915;28;45234;-77
2022/11/05 00:57:54;;;;;;;1.02;0.60;;;15.50;59.20;;;;;;5007074;28;45239;-80
2022/11/05 01:00:22;;;;;;;0.70;0.65;;;15.50;59.20;;;;;;5007050;28;45244;-77
2022/11/05 01:02:48;;;;;;;0.45;0.45;;;15.50;59.20;;;;;;5006259;28;45415;-77
2022/11/05 01:05:16;;;;;;;0.70;0.70;;;15.50;59.20;;;;;;5006775;28;45378;-77
2022/11/05 01:07:44;;;;;;;0.60;0.60;;;15.50;59.20;;;;;;5007079;28;45291;-78
2022/11/05 01:10:11;;;;;;;1.00;0.60;;;15.50;59.10;;;;;;5006774;28;45405;-78
2022/11/05 01:12:38;;;;;;;1.10;0.80;;;15.50;59.10;;;;;;5006579;28;45193;-80
2022/11/05 01:15:06;;;;;;;0.75;0.63;;;15.50;59.10;;;;;;5006495;28;45429;-77
2022/11/05 01:17:32;;;;;;;0.57;0.57;;;15.50;59.10;;;;;;5006584;28;45316;-78
2022/11/05 01:19:59;;;;;;;2.67;0.70;;;15.50;59.10;;;;;;5006868;28;45216;-78
2022/11/05 01:22:26;;;;;;;1.17;0.70;;;15.50;59.10;;;;;;5006378;28;45328;-77
2022/11/05 01:24:55;;;;;;;0.60;0.60;;;15.50;59.10;;;;;;5006507;28;45247;-77
2022/11/05 01:27:25;;;;;;;0.77;0.60;;;15.50;59.10;;;;;;5006943;28;45326;-79
2022/11/05 01:29:52;;;;;;;0.70;0.70;;;15.40;59.10;;;;;;5006761;28;45193;-79
2022/11/05 01:32:19;;;;;;;0.73;0.70;;;15.40;59.10;;;;;;5006465;28;45294;-77
2022/11/05 01:34:45;;;;;;;0.63;0.63;;;15.40;59.10;;;;;;5006129;28;45273;-78
2022/11/05 01:37:13;;;;;;;0.82;0.70;;;15.40;59.10;;;;;;5007076;28;45232;-79
2022/11/05 01:39:40;;;;;;;0.70;0.70;;;15.40;59.20;;;;;;5009938;28;45352;-77
2022/11/05 01:42:13;;;;;;;0.70;0.60;;;15.40;59.20;;;;;;5009502;28;46562;-77
2022/11/05 01:44:58;;;;;;;0.60;0.60;;;15.40;59.20;;;;;;5009735;28;45208;-78
2022/11/05 01:47:37;;;;;;;0.70;0.70;;;15.40;59.20;;;;;;5009680;28;45252;-78
2022/11/05 01:50:07;;;;;;;0.70;0.70;;;15.40;59.20;;;;;;5009873;28;45402;-79
2022/11/05 01:52:34;;;;;;;0.50;0.50;;;15.40;59.20;;;;;;5009526;28;47394;-78
2022/11/05 01:55:02;;;;;;;0.70;0.60;;;15.40;59.20;;;;;;5009522;28;45212;-78
2022/11/05 01:57:30;;;;;;;0.50;0.50;;;15.40;59.20;;;;;;5009701;28;45312;-78
2022/11/05 01:59:58;;;;;;;0.60;0.60;;;15.40;59.80;;;;;;5009805;28;45276;-78
2022/11/05 02:02:25;;;;;;;0.57;0.55;;;15.40;59.80;;;;;;5009208;28;45382;-79
2022/11/05 02:04:54;;;;;;;0.50;0.50;;;15.40;59.20;;;;;;5009400;28;45177;-78
2022/11/05 02:07:21;;;;;;;0.82;0.70;;;15.40;59.20;;;;;;5009421;28;45319;-79
2022/11/05 02:09:51;;;;;;;0.43;0.43;;;15.40;59.20;;;;;;5009535;28;45402;-78
2022/11/05 02:12:18;;;;;;;0.70;0.70;;;15.40;59.20;;;;;;5009027;28;45751;-80
2022/11/05 02:14:46;;;;;;;0.50;0.50;;;15.40;59.20;;;;;;5009296;28;45361;-79
2022/11/05 02:17:15;;;;;;;0.47;0.47;;;15.40;59.20;;;;;;5009302;28;45428;-79
2022/11/05 02:20:06;;;;;;;0.68;0.68;;;15.40;59.30;;;;;;5009451;28;45415;-79
2022/11/05 02:23:14;;;;;;;0.70;0.70;;;15.40;59.20;;;;;;5009337;28;45305;-78
2022/11/05 02:26:16;;;;;;;0.40;0.40;;;15.40;59.30;;;;;;5009170;28;45200;-79
2022/11/05 02:29:35;;;;;;;0.93;0.65;;;15.30;59.20;;;;;;5009318;28;45508;-79
2022/11/05 02:32:05;;;;;;;0.82;0.50;;;15.30;59.20;;;;;;4967824;28;45431;-78
2022/11/05 02:34:35;;;;;;;1.33;0.50;;;15.30;59.80;;;;;;4966359;28;46393;-78
2022/11/05 02:37:05;;;;;;;0.50;0.50;;;15.30;59.20;;;;;;4991728;28;45354;-78
2022/11/05 02:39:37;;;;;;;0.70;0.70;;;15.30;59.30;;;;;;5008788;28;45305;-79
2022/11/05 02:42:08;;;;;;;0.60;0.60;;;15.30;59.30;;;;;;5009281;28;45373;-79
2022/11/05 02:44:39;;;;;;;0.50;0.50;;;15.30;59.30;;;;;;5008713;28;45211;-78
2022/11/05 02:47:08;;;;;;;0.77;0.60;;;15.30;59.30;;;;;;5008865;28;45278;-79
2022/11/05 02:49:40;;;;;;;0.50;0.50;;;15.30;59.30;;;;;;5007686;28;45233;-78
2022/11/05 02:52:09;;;;;;;0.70;0.70;;;15.30;59.30;;;;;;5008879;28;45430;-79
2022/11/05 02:54:36;;;;;;;0.60;0.60;;;15.30;59.30;;;;;;5008543;28;45469;-79
2022/11/05 02:57:04;;;;;;;0.98;0.68;;;15.30;59.30;;;;;;5008339;28;45172;-79
2022/11/05 02:59:31;;;;;;;0.65;0.60;;;15.30;59.30;;;;;;5008911;28;45428;-78
2022/11/05 03:01:58;;;;;;;0.50;0.50;;;15.30;59.20;;;;;;5008486;28;45413;-78
2022/11/05 03:04:26;;;;;;;1.23;0.63;;;15.30;59.20;;;;;;5008240;28;45227;-79
2022/11/05 03:07:17;;;;;;;0.60;0.60;;;15.30;59.30;;;;;;5008582;28;45180;-79
2022/11/05 03:09:56;;;;;;;0.73;0.60;;;15.30;59.30;;;;;;5000991;28;45269;-79
2022/11/05 03:12:30;;;;;;;0.60;0.60;;;15.30;59.30;;;;;;5008842;28;45263;-78
2022/11/05 03:15:01;;;;;;;0.70;0.70;;;15.30;59.30;;;;;;5008235;28;45562;-79
2022/11/05 03:17:32;;;;;;;0.45;0.45;;;15.30;59.30;;;;;;5008342;28;45282;-78
2022/11/05 03:20:03;;;;;;;0.60;0.60;;;15.30;59.30;;;;;;5008425;28;45303;-79
2022/11/05 03:22:31;;;;;;;0.60;0.60;;;15.30;59.30;;;;;;5008585;28;45407;-79
2022/11/05 03:25:00;;;;;;;0.82;0.60;;;15.30;59.30;;;;;;5007937;28;46665;-79
2022/11/05 03:27:29;;;;;;;0.80;0.80;;;15.30;59.40;;;;;;5007934;28;45396;-78
2022/11/05 03:29:59;;;;;;;0.70;0.70;;;15.20;59.30;;;;;;5007822;28;45196;-79
2022/11/05 03:32:26;;;;;;;0.40;0.40;;;15.20;59.30;;;;;;5008272;28;45454;-78
2022/11/05 03:34:56;;;;;;;0.50;0.50;;;15.20;59.30;;;;;;5008009;28;46403;-81
2022/11/05 03:37:24;;;;;;;0.60;0.60;;;15.20;59.30;;;;;;5008041;28;45340;-79
2022/11/05 03:39:52;;;;;;;0.40;0.40;;;15.20;59.30;;;;;;5008236;28;45351;-80
2022/11/05 03:42:21;;;;;;;0.50;0.50;;;15.20;59.30;;;;;;5008151;28;45419;-79
2022/11/05 03:44:49;;;;;;;0.50;0.50;;;15.20;59.40;;;;;;5007668;28;45504;-79
2022/11/05 03:47:19;;;;;;;0.60;0.50;;;15.20;59.40;;;;;;5006789;28;45307;-80
2022/11/05 03:49:50;;;;;;;0.50;0.50;;;15.20;59.40;;;;;;5007056;28;45270;-79
2022/11/05 03:52:17;;;;;;;0.50;0.50;;;15.20;59.30;;;;;;5007698;28;45382;-79
2022/11/05 03:54:46;;;;;;;0.30;0.30;;;15.20;59.40;;;;;;5007657;28;45267;-79
2022/11/05 03:57:15;;;;;;;0.40;0.40;;;15.20;59.30;;;;;;5007812;28;45114;-80
2022/11/05 03:59:42;;;;;;;0.65;0.60;;;15.20;59.40;;;;;;5007678;28;45307;-79
2022/11/05 04:02:10;;;;;;;0.70;0.70;;;15.20;59.30;;;;;;5007509;28;45292;-79
2022/11/05 04:04:36;;;;;;;0.57;0.50;;;15.20;59.30;;;;;;5007570;28;45385;-80
2022/11/05 04:15:17;;;;;;;1.27;0.47;;;15.20;59.40;;;;;;5004544;28;45183;-79
2022/11/05 04:17:43;;;;;;;0.50;0.50;;;15.20;60.00;;;;;;5007302;28;45544;-80
2022/11/05 04:25:44;;;;;;;0.32;0.32;;;15.20;59.50;;;;;;5007516;28;45314;-80
2022/11/05 04:28:11;;;;;;;0.55;0.55;;;15.10;59.50;;;;;;5008263;28;45267;-79
2022/11/05 04:30:37;;;;;;;0.40;0.40;;;15.10;59.50;;;;;;5008743;28;45425;-79
2022/11/05 04:33:05;;;;;;;0.80;0.80;;;15.10;59.50;;;;;;5008806;28;45383;-79
2022/11/05 04:35:33;;;;;;;0.55;0.55;;;15.10;59.50;;;;;;5008062;28;46496;-79
2022/11/05 04:38:00;;;;;;;0.30;0.30;;;15.10;59.50;;;;;;5008543;28;45199;-80
2022/11/05 04:40:27;;;;;;;0.50;0.50;;;15.10;59.50;;;;;;5008609;28;45195;-80
2022/11/05 04:42:55;;;;;;;0.47;0.47;;;15.10;59.50;;;;;;5008032;28;45255;-80
2022/11/05 04:45:22;;;;;;;0.40;0.40;;;15.10;59.50;;;;;;5008266;28;46447;-80
2022/11/05 04:47:49;;;;;;;0.50;0.50;;;15.10;59.50;;;;;;5008291;28;45418;-79
2022/11/05 04:50:16;;;;;;;0.50;0.50;;;15.10;59.50;;;;;;5008354;28;45264;-79
2022/11/05 04:52:43;;;;;;;0.30;0.30;;;15.10;59.50;;;;;;5008346;28;45221;-80
2022/11/05 04:55:10;;;;;;;0.40;0.40;;;15.10;59.60;;;;;;5007105;28;46455;-79
2022/11/05 04:57:37;;;;;;;0.32;0.32;;;15.10;59.60;;;;;;5006951;28;45379;-79
2022/11/05 05:00:07;;;;;;;0.38;0.38;;;15.10;59.60;;;;;;5006807;28;45244;-79
2022/11/05 05:02:35;;;;;;;0.73;0.60;;;15.10;59.60;;;;;;5005906;28;45198;-79
2022/11/05 05:05:02;;;;;;;0.50;0.50;;;15.10;59.60;;;;;;5006944;28;45486;-79
2022/11/05 05:07:30;;;;;;;0.50;0.47;;;15.10;59.70;;;;;;5007179;28;45313;-80
2022/11/05 05:09:57;;;;;;;0.82;0.50;;;15.10;59.60;;;;;;5006917;28;45335;-79
2022/11/05 05:12:24;;;;;;;0.40;0.40;;;15.10;59.60;;;;;;5008518;28;45201;-79
2022/11/05 05:14:51;;;;;;;0.40;0.40;;;15.10;59.70;;;;;;5009911;28;46444;-79
2022/11/05 05:17:19;;;;;;;0.40;0.40;;;15.10;59.70;;;;;;5010229;28;45407;-80
2022/11/05 05:22:30;;;;;;;0.50;0.50;;;15.10;59.60;;;;;;5007938;28;45312;-80
2022/11/05 05:24:58;;;;;;;0.50;0.50;;;15.10;60.40;;;;;;5010022;28;46884;-79
2022/11/05 05:27:28;;;;;;;0.85;0.57;;;15.10;59.70;;;;;;5010107;28;45331;-79
2022/11/05 05:29:55;;;;;;;0.40;0.40;;;15.10;59.70;;;;;;5010306;28;45251;-79
2022/11/05 05:32:23;;;;;;;0.38;0.38;;;15.10;59.80;;;;;;5010374;28;45552;-79
2022/11/05 05:34:50;;;;;;;0.20;0.20;;;15.10;59.80;;;;;;5009925;28;46419;-79
2022/11/05 05:37:17;;;;;;;0.30;0.30;;;15.10;59.80;;;;;;5009795;28;45320;-79
2022/11/05 05:39:44;;;;;;;0.40;0.40;;;15.00;59.80;;;;;;5010195;28;45351;-79
2022/11/05 05:42:12;;;;;;;0.43;0.43;;;15.00;59.70;;;;;;5010620;28;45639;-79
2022/11/05 05:44:39;;;;;;;0.30;0.30;;;15.10;59.70;;;;;;5009963;28;45425;-79
2022/11/05 05:47:06;;;;;;;0.47;0.40;;;15.10;59.80;;;;;;5009747;28;45250;-79
2022/11/05 05:49:34;;;;;;;0.38;0.38;;;15.10;59.70;;;;;;5009888;28;45274;-79
2022/11/05 05:52:01;;;;;;;0.40;0.40;;;15.00;59.70;;;;;;5009130;28;45465;-79
2022/11/05 05:54:28;;;;;;;0.32;0.32;;;15.00;59.70;;;;;;5008984;28;45204;-79
2022/11/05 05:56:55;;;;;;;0.47;0.47;;;15.00;59.80;;;;;;5009616;28;45211;-79
2022/11/05 05:59:22;;;;;;;0.45;0.45;;;15.00;59.80;;;;;;5009511;28;45382;-79
2022/11/05 06:01:49;;;;;;;0.40;0.40;;;15.00;59.80;;;;;;5009425;28;45413;-80
2022/11/05 06:04:16;;;;;;;0.30;0.30;;;15.00;59.80;;;;;;5009255;28;45327;-78
2022/11/05 06:06:47;;;;;;;0.50;0.50;;;15.00;59.80;;;;;;5010603;28;45189;-80
2022/11/05 06:09:17;;;;;;;0.40;0.40;;;15.00;59.90;;;;;;5011922;28;45278;-81
2022/11/05 06:11:45;;;;;;;0.45;0.32;;;15.00;59.90;;;;;;5010751;28;45232;-79
2022/11/05 06:14:12;;;;;;;0.35;0.35;;;15.00;59.90;;;;;;5009366;28;45397;-78
2022/11/05 06:16:39;;;;;;;0.35;0.35;;;15.00;59.80;;;;;;5009301;28;45322;-78
2022/11/05 06:19:06;;;;;;;0.35;0.35;;;15.00;59.80;;;;;;5010091;28;45342;-78
2022/11/05 06:21:33;;;;;;;0.40;0.40;;;15.00;60.60;;;;;;5009841;28;45402;-79
2022/11/05 06:24:02;;;;;;;0.93;0.60;;;15.00;59.90;;;;;;5007692;28;46520;-80
2022/11/05 06:26:28;;;;;;;0.40;0.40;;;15.00;59.90;;;;;;5008914;28;45482;-79
2022/11/05 06:28:55;;;;;;;0.50;0.50;;;15.00;59.90;;;;;;5009136;28;45360;-78
2022/11/05 06:31:22;;;;;;;0.25;0.25;;;15.00;59.90;;;;;;5009106;28;45414;-78
2022/11/05 06:33:49;;;;;;;0.40;0.40;;;15.00;59.90;;;;;;5008811;28;47680;-78
2022/11/05 06:36:17;;;;;;;0.40;0.40;;;15.00;59.90;;;;;;5008973;28;45355;-78
2022/11/05 06:38:44;;;;;;;0.85;0.50;;;15.00;60.10;;;;;;5008380;28;45298;-78
2022/11/05 06:41:12;;;;;;;0.43;0.43;;;15.00;59.90;;;;;;5008917;28;45464;-78
2022/11/05 06:43:39;;;;;;;0.40;0.40;;;14.90;59.90;;;;;;5008630;28;45488;-78
2022/11/05 06:46:06;;;;;;;0.40;0.40;;;15.00;60.00;;;;;;5008591;28;45323;-78
2022/11/05 06:48:33;;;;;;;0.57;0.57;;;15.00;60.00;;;;;;5008962;28;45378;-78
2022/11/05 06:51:00;;;;;;;0.38;0.38;;;15.00;60.00;;;;;;5008895;28;45468;-79
2022/11/05 06:53:27;;;;;;;0.28;0.28;;;15.00;60.00;;;;;;5008563;28;46992;-79
2022/11/05 06:55:54;;;;;;;0.40;0.40;;;15.00;60.00;;;;;;5008664;28;45233;-79
2022/11/05 06:58:23;;;;;;;0.30;0.30;;;15.00;60.00;;;;;;5008768;28;45343;-79
2022/11/05 07:00:50;;;;;;;0.30;0.30;;;15.00;60.00;;;;;;5008727;28;45235;-80
2022/11/05 07:03:17;;;;;;;0.40;0.40;;;15.00;60.00;;;;;;5008461;28;46643;-79
2022/11/05 07:05:46;;;;;;;0.38;0.30;;;15.00;60.00;;;;;;5008304;28;45355;-79
2022/11/05 07:08:13;;;;;;;0.30;0.30;;;14.90;60.00;;;;;;5008538;28;45291;-80
2022/11/05 07:10:39;;;;;;;0.40;0.40;;;15.00;60.00;;;;;;5008366;28;45292;-80
2022/11/05 07:13:07;;;;;;;0.45;0.45;;;14.90;60.00;;;;;;5008327;28;45462;-80
2022/11/05 07:15:35;;;;;;;0.40;0.40;;;14.90;60.00;;;;;;5008236;28;45189;-79
2022/11/05 07:18:02;;;;;;;0.40;0.40;;;14.90;60.10;;;;;;5008524;28;45352;-79
2022/11/05 07:20:29;;;;;;;0.40;0.40;;;14.90;60.00;;;;;;5008547;28;45522;-79
2022/11/05 07:23:02;;;;;;;0.55;0.43;;;15.00;60.00;;;;;;5007514;28;45326;-79
2022/11/05 07:25:30;;;;;;;0.50;0.50;;;15.00;60.00;;;;;;5007336;28;45294;-79
2022/11/05 07:27:57;;;;;;;0.30;0.30;;;15.00;60.00;;;;;;5008201;28;45261;-80
2022/11/05 07:30:24;;;;;;;0.82;0.47;;;15.00;60.00;;;;;;5008383;28;45477;-80
2022/11/05 07:32:52;;;;;;;0.50;0.50;;;15.00;60.00;;;;;;5008074;28;46353;-79
2022/11/05 07:35:19;;;;;;;0.70;0.40;;;15.00;60.70;;;;;;5007701;28;45438;-79
2022/11/05 07:37:47;;;;;;;0.40;0.40;;;15.00;60.00;;;;;;5008250;28;45223;-79
2022/11/05 07:40:14;;;;;;;0.40;0.40;;;15.00;60.00;;;;;;5008367;28;45193;-79
2022/11/05 07:42:43;;;;;;;0.50;0.40;;;15.00;60.00;;;;;;5007828;28;45464;-79
2022/11/05 07:45:10;;;;;;;0.30;0.30;;;15.00;59.90;;;;;;5007973;28;45403;-79
2022/11/05 07:47:37;;;;;;;1.58;0.50;;;15.00;59.90;;;;;;5007876;28;45207;-79
2022/11/05 07:50:07;;;;;;;0.55;0.55;;;14.90;59.90;;;;;;5008168;28;45394;-79
2022/11/05 07:52:34;;;;;;;0.40;0.40;;;15.00;59.90;;;;;;5007353;28;46383;-79
2022/11/05 07:55:01;;;;;;;0.35;0.35;;;15.00;60.00;;;;;;5007939;28;45165;-80
2022/11/05 07:57:28;;;;;;;0.40;0.40;;;15.00;60.00;;;;;;5007640;28;45316;-80
2022/11/05 07:59:55;;;;;;;0.50;0.50;;;15.00;60.10;;;;;;5008297;28;45192;-79
2022/11/05 08:02:22;;;;;;;0.50;0.50;;;14.90;60.00;;;;;;5007327;28;46381;-79
2022/11/05 08:04:49;;;;;;;0.40;0.40;;;15.00;60.00;;;;;;5007778;28;45303;-80
2022/11/05 08:07:17;;;;;;;0.50;0.50;;;15.00;60.00;;;;;;5007210;28;45239;-79
2022/11/05 08:09:44;;;;;;;0.40;0.40;;;15.00;60.00;;;;;;5007297;28;45235;-80
2022/11/05 08:12:11;;;;;;;0.50;0.50;;;15.00;60.00;;;;;;5007610;28;46704;-80
2022/11/05 08:14:38;;;;;;;0.40;0.40;;;15.00;60.80;;;;;;5007630;28;45311;-80
2022/11/05 08:17:05;;;;;;;0.35;0.35;;;15.00;60.20;;;;;;5007656;28;45367;-79
2022/11/05 08:19:32;;;;;;;0.80;0.60;;;15.00;60.20;;;;;;5007930;28;45552;-79
2022/11/05 08:21:59;;;;;;;0.30;0.30;;;15.00;60.10;;;;;;5007225;28;45251;-79
2022/11/05 08:24:27;;;;;;;0.50;0.50;;;15.00;60.20;;;;;;5007511;28;45326;-80
2022/11/05 08:26:54;;;;;;;0.50;0.50;;;15.00;60.20;;;;;;5007750;28;45370;-80
2022/11/05 08:29:21;;;;;;;2.42;0.60;;;15.00;60.30;;;;;;5007826;28;45406;-80
2022/11/05 08:31:48;;;;;;;0.60;0.60;;;15.00;60.20;;;;;;5007160;28;47343;-80
2022/11/05 08:34:15;;;;;;;0.50;0.50;;;15.00;60.20;;;;;;5007881;28;45187;-80
2022/11/05 08:36:45;;;;;;;0.40;0.32;;;15.00;60.30;;;;;;5007758;28;45299;-81
2022/11/05 08:39:12;;;;;;;0.47;0.47;;;15.00;60.30;;;;;;5007722;28;45282;-79
2022/11/05 08:41:41;;;;;;;0.45;0.45;;;15.00;60.20;;;;;;5007187;28;46517;-80
2022/11/05 08:44:08;;;;;;;0.60;0.60;;;15.10;60.30;;;;;;5007101;28;45331;-79
2022/11/05 08:46:36;;;;;;;0.75;0.75;;;15.10;60.20;;;;;;5007850;28;45239;-79
2022/11/05 08:49:02;;;;;;;0.60;0.60;;;15.10;60.20;;;;;;5011304;28;45170;-80
2022/11/05 08:51:29;;;;;;;0.63;0.60;;;15.00;60.20;;;;;;5010609;28;45184;-79
2022/11/05 08:53:56;;;;;;;0.65;0.65;;;15.10;60.30;;;;;;5009859;28;45217;-80
2022/11/05 08:56:23;;;;;;;0.40;0.40;;;15.10;60.20;;;;;;5010708;28;45335;-80
2022/11/05 08:58:52;;;;;;;0.52;0.52;;;15.10;60.30;;;;;;5010647;28;45295;-79
2022/11/05 09:01:18;;;;;;;0.90;0.50;;;15.10;60.30;;;;;;5009846;28;47464;-80
2022/11/05 09:03:46;;;;;;;0.50;0.50;;;15.10;60.30;;;;;;5010442;28;45248;-79
2022/11/05 09:06:13;;;;;;;0.40;0.40;;;15.10;60.30;;;;;;5009895;28;45445;-79
2022/11/05 09:08:40;;;;;;;0.60;0.60;;;15.10;60.30;;;;;;5010547;28;45409;-81
2022/11/05 09:11:07;;;;;;;0.50;0.50;;;15.10;60.40;;;;;;5010200;28;45421;-80
2022/11/05 09:13:34;;;;;;;0.63;0.45;;;15.10;60.30;;;;;;5010059;28;45216;-79
2022/11/05 09:16:02;;;;;;;0.70;0.70;;;15.10;60.30;;;;;;5010738;28;45327;-79
2022/11/05 09:18:29;;;;;;;0.50;0.50;;;15.10;60.30;;;;;;5010584;28;45422;-80
2022/11/05 09:20:57;;;;;;;0.43;0.43;;;15.10;60.30;;;;;;5009468;28;45536;-80
2022/11/05 09:23:24;;;;;;;0.98;0.65;;;15.10;60.40;;;;;;5010044;28;45216;-79
2022/11/05 09:25:51;;;;;;;0.60;0.60;;;15.10;60.30;;;;;;5009842;28;45281;-79
2022/11/05 09:28:18;;;;;;;0.60;0.60;;;15.10;60.40;;;;;;5009911;28;45316;-79
2022/11/05 09:30:46;;;;;;;1.08;0.63;;;15.10;61.10;;;;;;5009625;28;45466;-78
2022/11/05 09:33:14;;;;;;;0.77;0.65;;;15.10;60.30;;;;;;5009639;28;45252;-78
2022/11/05 09:35:41;;;;;;;0.60;0.60;;;15.10;60.30;;;;;;5010098;28;45279;-78
2022/11/05 09:38:08;;;;;;;0.70;0.70;;;15.10;61.00;;;;;;5010014;28;45387;-78
2022/11/05 09:40:37;;;;;;;0.60;0.60;;;15.10;60.20;;;;;;5008951;28;46438;-78
2022/11/05 09:43:05;;;;;;;0.75;0.50;;;15.10;60.30;;;;;;5010811;28;45295;-77
2022/11/05 09:45:32;;;;;;;4.40;0.65;;;15.10;61.00;;;;;;5009952;28;45257;-76
2022/11/05 09:48:01;;;;;;;0.70;0.70;;;15.10;60.50;;;;;;5010914;28;45480;-78
2022/11/05 09:50:33;;;;;;;0.60;0.60;;;15.10;60.50;;;;;;5011368;28;46646;-78
2022/11/05 09:53:00;;;;;;;1.88;0.80;;;15.10;60.50;;;;;;5012629;28;45362;-77
2022/11/05 09:55:28;;;;;;;0.50;0.50;;;15.10;60.60;;;;;;5011610;28;45299;-78
2022/11/05 09:57:57;;;;;;;1.15;0.60;;;15.10;60.60;;;;;;5009994;28;45112;-78
2022/11/05 10:00:24;;;;;;;0.75;0.75;;;15.10;60.60;;;;;;5009394;28;45343;-78
2022/11/05 10:02:53;;;;;;;1.05;0.70;;;15.10;60.60;;;;;;5008643;28;45307;-77
2022/11/05 10:05:20;;;;;;;1.75;0.80;;;15.20;60.60;;;;;;5009423;28;45240;-77
2022/11/05 10:07:50;;;;;;;2.20;0.55;;;15.20;60.60;;;;;;5009761;28;45450;-78
2022/11/05 10:10:26;;;;;;;0.60;0.60;;;15.20;60.60;;;;;;5009461;28;45296;-77
2022/11/05 10:12:54;;;;;;;0.50;0.50;;;15.20;60.50;;;;;;5009269;28;45315;-79
2022/11/05 10:15:22;;;;;;;0.88;0.50;;;15.20;60.50;;;;;;5009768;28;45204;-79
2022/11/05 10:17:51;;;;;;;0.60;0.60;;;15.20;60.60;;;;;;5011942;28;45440;-78
2022/11/05 10:20:22;;;;;;;1.33;0.68;;;15.20;60.40;;;;;;5009060;28;46568;-78
2022/11/05 10:22:51;;;;;;;1.42;0.70;;;15.30;60.40;;;;;;5009330;28;45251;-77
2022/11/05 10:25:19;;;;;;;0.68;0.68;;;15.30;60.20;;;;;;5009031;28;45248;-77
2022/11/05 10:27:50;;;;;;;0.50;0.50;;;15.40;60.20;;;;;;5009340;28;45501;-77
2022/11/05 10:30:17;;;;;;;1.25;0.80;;;15.30;60.10;;;;;;5008839;28;46583;-76
2022/11/05 10:32:44;;;;;;;0.88;0.68;;;15.30;60.10;;;;;;5010488;28;45302;-77
2022/11/05 10:35:13;;;;;;;0.70;0.70;;;15.40;60.10;;;;;;5008461;28;45254;-78
2022/11/05 10:37:40;;;;;;;0.70;0.70;;;15.40;60.10;;;;;;5009061;28;45406;-77
2022/11/05 10:40:22;;;;;;;1.20;0.60;;;15.40;60.20;;;;;;5008566;28;46943;-78
2022/11/05 10:42:54;;;;;;;0.75;0.65;;;15.40;60.20;;;;;;5009022;28;45362;-77
2022/11/05 10:45:26;;;;;;;1.00;0.60;;;15.40;60.30;;;;;;5008829;28;45168;-77
2022/11/05 10:47:59;;;;;;;0.70;0.70;;;15.40;60.30;;;;;;5009714;28;45315;-77
2022/11/05 10:50:27;;;;;;;0.50;0.50;;;15.40;60.40;;;;;;5008535;28;45490;-78
2022/11/05 10:52:57;;;;;;;0.70;0.70;;;15.30;60.30;;;;;;5008347;28;45307;-76
2022/11/05 10:55:27;;;;;;;1.70;0.63;;;15.30;60.30;;;;;;5009707;28;45273;-77
2022/11/05 10:57:55;;;;;;;0.60;0.60;;;15.40;60.50;;;;;;5010985;28;45426;-76
2022/11/05 11:00:27;;;;;;;0.88;0.68;;;15.30;60.40;;;;;;5009123;28;45609;-77
2022/11/05 11:02:57;;;;;;;0.57;0.57;;;15.30;60.40;;;;;;5008331;28;45410;-77
2022/11/05 11:05:27;;;;;;;0.65;0.60;;;15.30;60.50;;;;;;5008575;28;45282;-77
2022/11/05 11:07:59;;;;;;;1.23;0.90;;;15.30;60.50;;;;;;5008937;28;45359;-76
2022/11/05 11:10:28;;;;;;;0.60;0.60;;;15.30;60.50;;;;;;5007625;28;46616;-77
2022/11/05 11:12:55;;;;;;;0.60;0.60;;;15.30;60.50;;;;;;5008236;28;45284;-77
2022/11/05 11:15:27;;;;;;;0.82;0.82;;;15.30;60.50;;;;;;5008302;28;45212;-76
2022/11/05 11:17:55;;;;;;;1.15;0.68;;;15.30;61.20;;;;;;5008824;28;45268;-76
2022/11/05 11:20:25;;;;;;;0.60;0.60;;;15.30;60.50;;;;;;5008388;28;46363;-77
2022/11/05 11:23:09;;;;;;;0.75;0.75;;;15.30;60.50;;;;;;5008609;28;45331;-76
2022/11/05 11:25:41;;;;;;;0.65;0.63;;;15.30;60.50;;;;;;5008519;28;45374;-77
2022/11/05 11:28:14;;;;;;;1.13;0.70;;;15.30;60.40;;;;;;5008316;28;45382;-77
2022/11/05 11:30:41;;;;;;;0.60;0.60;;;15.40;60.50;;;;;;5007817;28;46733;-77
2022/11/05 11:33:08;;;;;;;1.58;0.93;;;15.40;60.60;;;;;;5007102;28;45469;-76
2022/11/05 11:35:45;;;;;;;0.93;0.70;;;15.30;60.70;;;;;;5007976;28;45338;-76
2022/11/05 11:38:14;;;;;;;0.98;0.85;;;15.30;60.70;;;;;;5009100;28;45647;-77
2022/11/05 11:40:42;;;;;;;0.70;0.70;;;15.30;60.60;;;;;;5007778;28;46404;-77
2022/11/05 11:43:15;;;;;;;0.90;0.70;;;15.30;60.70;;;;;;5007950;28;45375;-77
2022/11/05 11:45:45;;;;;;;0.93;0.80;;;15.30;60.50;;;;;;5007920;28;45387;-78
2022/11/05 11:48:15;;;;;;;1.08;0.80;;;15.40;60.60;;;;;;5008207;28;45461;-78
2022/11/05 11:50:43;;;;;;;0.90;0.90;;;15.40;60.50;;;;;;5007864;28;45454;-78
2022/11/05 11:53:29;;;;;;;0.95;0.80;;;15.40;60.50;;;;;;5007180;28;45235;-77
2022/11/05 11:56:06;;;;;;;0.70;0.70;;;15.40;60.50;;;;;;5006957;28;45291;-77
2022/11/05 11:58:41;;;;;;;0.70;0.70;;;15.40;60.40;;;;;;5008101;28;45145;-77
2022/11/05 12:01:39;;;;;;;0.60;0.60;;;15.40;60.50;;;;;;5007309;28;45469;-77
2022/11/05 12:04:25;;;;;;;0.63;0.63;;;15.40;60.30;;;;;;5023268;28;45476;-77
2022/11/05 12:06:58;;;;;;;0.70;0.70;;;15.50;60.20;;;;;;5007321;28;45950;-77
2022/11/05 12:09:28;;;;;;;0.70;0.70;;;15.50;60.00;;;;;;5008673;28;45210;-77
2022/11/05 12:12:00;;;;;;;0.95;0.85;;;15.60;60.50;;;;;;5018355;28;45375;-77
2022/11/05 12:14:31;;;;;;;0.80;0.70;;;15.70;60.20;;;;;;5012645;28;45252;-76
2022/11/05 12:17:15;;;;;;;1.02;0.80;;;15.70;59.60;;;;;;5025151;28;45431;-76
2022/11/05 12:20:02;;;;;;;0.88;0.80;;;15.70;59.60;;;;;;5007996;28;45422;-76
2022/11/05 12:22:33;;;;;;;1.50;1.20;;;15.70;59.50;;;;;;5015153;28;45362;-76
2022/11/05 12:25:12;;;;;;;0.90;0.90;;;15.80;59.50;;;;;;5007246;28;45420;-76
2022/11/05 12:27:48;;;;;;;0.73;0.73;;;15.80;59.40;;;;;;5007220;28;45197;-76
2022/11/05 12:30:15;;;;;;;1.38;0.68;;;15.80;59.50;;;;;;5007601;28;45202;-76
2022/11/05 12:33:09;;;;;;;0.98;0.88;;;15.80;59.40;;;;;;5007743;28;45628;-76
2022/11/05 12:35:41;;;;;;;1.42;0.90;;;15.80;59.30;;;;;;5003924;28;45300;-76
2022/11/05 12:38:13;;;;;;;1.08;0.90;;;15.80;59.30;;;;;;5007331;28;45216;-77
2022/11/05 12:40:47;;;;;;;1.10;0.90;;;15.90;59.40;;;;;;5007216;28;45225;-77
2022/11/05 12:43:19;;;;;;;0.80;0.80;;;15.90;59.40;;;;;;5007412;28;45319;-77
2022/11/05 12:45:49;;;;;;;1.40;1.10;;;15.90;59.30;;;;;;5026559;28;45335;-76
2022/11/05 12:48:31;;;;;;;0.70;0.70;;;15.90;59.30;;;;;;5026993;28;45271;-76
2022/11/05 12:51:01;;;;;;;0.80;0.80;;;15.90;59.30;;;;;;5027082;28;45252;-77
2022/11/05 12:53:50;;;;;;;1.10;0.82;;;16.00;59.20;;;;;;5010127;28;45433;-75
2022/11/05 12:56:20;;;;;;;1.00;1.00;;;16.10;59.20;;;;;;5000212;28;45232;-76
2022/11/05 12:58:50;;;;;;;0.88;0.88;;;16.10;59.00;;;;;;5009107;28;45358;-77
2022/11/05 13:01:19;;;;;;;0.98;0.90;;;16.10;58.90;;;;;;5027126;28;45246;-76
2022/11/05 13:03:48;;;;;;;1.00;0.80;;;16.10;59.00;;;;;;5027353;28;45394;-77
2022/11/05 13:06:16;;;;;;;0.82;0.82;;;16.10;59.00;;;;;;5025058;28;45201;-76
2022/11/05 13:08:46;;;;;;;1.75;0.80;;;16.10;59.10;;;;;;5026840;28;45239;-76
2022/11/05 13:11:18;;;;;;;0.80;0.80;;;16.10;59.80;;;;;;5011749;28;45245;-76
2022/11/05 13:13:50;;;;;;;1.00;1.00;;;16.20;59.00;;;;;;5005366;28;45353;-77
2022/11/05 13:16:23;;;;;;;0.80;0.80;;;16.40;58.60;;;;;;5005994;28;45269;-77
2022/11/05 13:18:51;;;;;;;1.60;0.90;;;16.50;58.30;;;;;;5006729;28;45200;-77
2022/11/05 13:21:19;;;;;;;1.15;0.95;;;16.40;58.50;;;;;;5007592;28;45296;-76
2022/11/05 13:23:48;;;;;;;1.05;1.00;;;16.40;58.70;;;;;;5007903;28;45290;-77
2022/11/05 13:26:17;;;;;;;0.80;0.80;;;16.30;58.80;;;;;;5026867;28;45196;-77
2022/11/05 13:28:46;;;;;;;0.80;0.80;;;16.30;59.00;;;;;;5024310;28;45534;-76
2022/11/05 13:31:17;;;;;;;1.92;0.90;;;16.30;59.20;;;;;;5006421;28;45303;-76
2022/11/05 13:33:45;;;;;;;1.42;1.00;;;16.20;59.30;;;;;;5026819;28;46701;-77
2022/11/05 13:39:00;;;;;;;1.20;1.10;;;16.20;59.20;;;;;;5030150;28;45437;-76
2022/11/05 13:41:31;;;;;;;2.53;0.70;;;16.20;59.20;;;;;;5028888;28;45243;-77
2022/11/05 13:44:11;;;;;;;3.05;1.00;;;16.20;59.20;;;;;;5029685;28;46302;-76